Aviation Digital Data Service (ADDS)

Output produced by METARs form (2042 UTC 27 April 2015)
found at http://aviationweather.gov/adds/metars/
 
KCLE 271740Z 2718/2824 33012G20KT P6SM OVC018 
     FM271900 34012G20KT P6SM OVC025 
     FM272200 36010KT P6SM OVC035 
     FM281000 34005KT 5SM BR BKN020 
     FM281400 34008KT P6SM BKN040 
     FM282200 34008KT P6SM SCT040